Rome Fiumicino, Italy

4:22 PM CEST on September 19, 2014 (GMT +0200)
ILAZIOFI2 | Change Station
CLOSE
Current Station
Personal Weather Station
Location: Fiumicino, Lazio
Elevation: 0 ft
Nearby Weather Stations

Elev 0 ft 41.85 °N, 12.20 °E | Updated 22 minutes ago

Scattered Clouds
Scattered Clouds
82.2 °F
Feels Like 87 °F
N
16.0
Wind Variable Wind from SE
Gusts 21.0 mph

Today
High -- | Low -- °F
--% Chance of Precip.
Yesterday
High -- | Low -- °F
Precip. -- in
6:55 AM 7:14 PM
Waning Crescent, 19% visible
Pressure 30.01 in
Visibility 6.2 miles
Clouds Scattered Clouds 2500 ft
Scattered Clouds 7000 ft
Heat Index 87 °F
Dew Point 72 °F
Humidity 71%
Rainfall 0.00 in
Snow Depth Not available.
UV 3 out of 12
Pollen Not available.
Air Quality Not available.
Flu Activity Not available.
METAR LIRE 191355Z 16013KT 9999 SCT025 SCT070 26/20 Q1016 RMK BKN VIS MIN 9999 WIND THR31 18012KT BLU

More Conditions Fewer Conditions

Pressure 30.01 in
Visibility 6.2 miles
Clouds Scattered Clouds 2500 ft
Scattered Clouds 7000 ft
Heat Index 87 °F
Dew Point 72 °F
Humidity 71%
Rainfall 0.00 in
Snow Depth Not available.
UV 3 out of 12
Pollen Not available.
Air Quality Not available.
Flu Activity Not available.
METAR LIRE 191355Z 16013KT 9999 SCT025 SCT070 26/20 Q1016 RMK BKN VIS MIN 9999 WIND THR31 18012KT BLU

More Conditions Fewer Conditions

10-Day Weather Forecast

Almanac

Astronomy

Sep. 19, 2014 Rise Set
Actual Time 6:55 AM CEST 7:14 PM CEST
Civil Twilight 6:27 AM CEST 7:41 PM CEST
Nautical Twilight 5:54 AM CEST 8:14 PM CEST
Astronomical Twilight 5:20 AM CEST 8:47 PM CEST
Moon 2:21 AM CEST 4:35 PM CEST
Length of Visible Light 13h 14m
Length of Day
12h 18m
Tomorrow will be 2m 46s shorter.
Waning Crescent, 19% of the Moon is Illuminated
Today
Waning Crescent
Sep 24
New
Oct 1
First Quarter
Oct 8
Full
Oct 15
Last Quarter

Yesterday's Extremes

Country Highs Country Lows

Community

WunderPhotos

Upload Photos

1,754,624 photos uploaded!

WunderBlogs® & News

Nearby

Snow Depth

Not available.

Earthquake Activity

City Distance Mag. Time & Date
No recent earthquake activity has been reported nearby.
Minimum magnitude displayed is 2.5.

Coastal Water Temperatures

Place Temperature
No Stations Reporting

Nearby Weather Stations